sensor_id;sensor_type;location;lat;lon;timestamp;pressure;altitude;pressure_sealevel;temperature;humidity
11971;BME280;6045;42.682;23.294;2023-02-12T00:00:08;95575.59;;;2.20;44.41
11971;BME280;6045;42.682;23.294;2023-02-12T00:02:35;95582.53;;;2.21;44.44
11971;BME280;6045;42.682;23.294;2023-02-12T00:05:02;95567.19;;;2.16;45.13
11971;BME280;6045;42.682;23.294;2023-02-12T00:07:29;95578.09;;;2.21;44.76
11971;BME280;6045;42.682;23.294;2023-02-12T00:09:56;95575.13;;;2.24;44.30
11971;BME280;6045;42.682;23.294;2023-02-12T00:12:23;95585.38;;;2.27;44.55
11971;BME280;6045;42.682;23.294;2023-02-12T00:14:51;95577.44;;;2.27;44.39
11971;BME280;6045;42.682;23.294;2023-02-12T00:17:18;95582.72;;;2.27;44.36
11971;BME280;6045;42.682;23.294;2023-02-12T00:19:45;95576.78;;;2.25;43.27
11971;BME280;6045;42.682;23.294;2023-02-12T00:22:12;95572.66;;;2.23;44.23
11971;BME280;6045;42.682;23.294;2023-02-12T00:24:39;95573.16;;;2.26;43.79
11971;BME280;6045;42.682;23.294;2023-02-12T00:27:06;95575.84;;;2.34;43.15
11971;BME280;6045;42.682;23.294;2023-02-12T00:29:32;95579.50;;;2.41;43.69
11971;BME280;6045;42.682;23.294;2023-02-12T00:32:00;95570.63;;;2.42;43.38
11971;BME280;6045;42.682;23.294;2023-02-12T00:34:27;95568.00;;;2.50;43.78
11971;BME280;6045;42.682;23.294;2023-02-12T00:36:54;95560.63;;;2.54;43.54
11971;BME280;6045;42.682;23.294;2023-02-12T00:39:21;95561.72;;;2.43;44.01
11971;BME280;6045;42.682;23.294;2023-02-12T00:41:47;95553.81;;;2.43;43.81
11971;BME280;6045;42.682;23.294;2023-02-12T00:44:14;95545.69;;;2.37;43.70
11971;BME280;6045;42.682;23.294;2023-02-12T00:46:41;95543.91;;;2.37;43.79
11971;BME280;6045;42.682;23.294;2023-02-12T00:49:09;95546.47;;;2.29;44.39
11971;BME280;6045;42.682;23.294;2023-02-12T00:51:36;95536.22;;;2.26;43.76
11971;BME280;6045;42.682;23.294;2023-02-12T00:54:02;95541.38;;;2.28;44.54
11971;BME280;6045;42.682;23.294;2023-02-12T00:56:29;95531.66;;;2.36;44.29
11971;BME280;6045;42.682;23.294;2023-02-12T00:58:56;95527.63;;;2.16;44.25
11971;BME280;6045;42.682;23.294;2023-02-12T01:01:23;95526.69;;;2.25;44.22
11971;BME280;6045;42.682;23.294;2023-02-12T01:03:50;95519.13;;;2.30;44.18
11971;BME280;6045;42.682;23.294;2023-02-12T01:06:18;95513.81;;;2.22;43.99
11971;BME280;6045;42.682;23.294;2023-02-12T01:08:45;95525.34;;;2.21;44.44
11971;BME280;6045;42.682;23.294;2023-02-12T01:11:12;95520.69;;;2.15;43.82
11971;BME280;6045;42.682;23.294;2023-02-12T01:13:39;95525.69;;;2.26;44.27
11971;BME280;6045;42.682;23.294;2023-02-12T01:16:07;95531.47;;;2.30;44.04
11971;BME280;6045;42.682;23.294;2023-02-12T01:18:37;95520.47;;;2.34;44.86
11971;BME280;6045;42.682;23.294;2023-02-12T01:21:09;95535.16;;;2.37;44.17
11971;BME280;6045;42.682;23.294;2023-02-12T01:23:37;95531.66;;;2.36;43.94
11971;BME280;6045;42.682;23.294;2023-02-12T01:26:04;95536.13;;;2.36;44.51
11971;BME280;6045;42.682;23.294;2023-02-12T01:28:32;95533.41;;;2.53;44.42
11971;BME280;6045;42.682;23.294;2023-02-12T01:30:58;95538.41;;;2.64;44.64
11971;BME280;6045;42.682;23.294;2023-02-12T01:33:25;95537.44;;;2.73;44.55
11971;BME280;6045;42.682;23.294;2023-02-12T01:35:52;95530.34;;;2.74;44.71
11971;BME280;6045;42.682;23.294;2023-02-12T01:38:19;95531.34;;;2.73;44.53
11971;BME280;6045;42.682;23.294;2023-02-12T01:40:47;95527.72;;;2.74;44.90
11971;BME280;6045;42.682;23.294;2023-02-12T01:43:13;95513.91;;;2.80;44.93
11971;BME280;6045;42.682;23.294;2023-02-12T01:45:46;95516.06;;;2.85;44.56
11971;BME280;6045;42.682;23.294;2023-02-12T01:48:15;95512.06;;;2.72;45.25
11971;BME280;6045;42.682;23.294;2023-02-12T01:50:45;95505.28;;;2.70;44.93
11971;BME280;6045;42.682;23.294;2023-02-12T01:53:14;95492.53;;;2.57;44.86
11971;BME280;6045;42.682;23.294;2023-02-12T01:55:48;95498.94;;;2.47;45.53
11971;BME280;6045;42.682;23.294;2023-02-12T01:58:16;95506.00;;;2.46;45.64
11971;BME280;6045;42.682;23.294;2023-02-12T02:00:43;95507.34;;;2.50;45.86
11971;BME280;6045;42.682;23.294;2023-02-12T02:03:10;95513.28;;;2.52;45.66
11971;BME280;6045;42.682;23.294;2023-02-12T02:05:42;95516.56;;;2.54;45.92
11971;BME280;6045;42.682;23.294;2023-02-12T02:08:12;95515.97;;;2.60;45.74
11971;BME280;6045;42.682;23.294;2023-02-12T02:10:39;95519.06;;;2.56;45.83
11971;BME280;6045;42.682;23.294;2023-02-12T02:13:07;95514.69;;;2.72;45.55
11971;BME280;6045;42.682;23.294;2023-02-12T02:15:55;95514.69;;;2.81;45.53
11971;BME280;6045;42.682;23.294;2023-02-12T02:18:31;95511.44;;;2.87;46.01
11971;BME280;6045;42.682;23.294;2023-02-12T02:21:27;95520.19;;;2.95;45.92
11971;BME280;6045;42.682;23.294;2023-02-12T02:27:36;95510.94;;;2.91;46.20
11971;BME280;6045;42.682;23.294;2023-02-12T02:30:30;95504.88;;;2.99;45.84
11971;BME280;6045;42.682;23.294;2023-02-12T02:35:54;95501.53;;;2.89;46.30
11971;BME280;6045;42.682;23.294;2023-02-12T02:38:30;95503.88;;;2.92;46.21
11971;BME280;6045;42.682;23.294;2023-02-12T02:41:03;95500.88;;;2.87;46.29
11971;BME280;6045;42.682;23.294;2023-02-12T02:43:34;95507.75;;;2.71;46.31
11971;BME280;6045;42.682;23.294;2023-02-12T02:46:06;95505.72;;;2.57;46.32
11971;BME280;6045;42.682;23.294;2023-02-12T02:48:38;95517.41;;;2.47;47.18
11971;BME280;6045;42.682;23.294;2023-02-12T02:51:11;95518.19;;;2.39;47.27
11971;BME280;6045;42.682;23.294;2023-02-12T02:53:43;95518.69;;;2.43;48.04
11971;BME280;6045;42.682;23.294;2023-02-12T02:56:13;95515.19;;;2.34;47.67
11971;BME280;6045;42.682;23.294;2023-02-12T02:58:44;95521.66;;;2.48;47.86
11971;BME280;6045;42.682;23.294;2023-02-12T03:01:17;95512.66;;;2.58;47.53
11971;BME280;6045;42.682;23.294;2023-02-12T03:03:49;95509.38;;;2.64;47.49
11971;BME280;6045;42.682;23.294;2023-02-12T03:06:26;95523.03;;;2.60;48.20
11971;BME280;6045;42.682;23.294;2023-02-12T03:08:55;95521.28;;;2.76;47.91
11971;BME280;6045;42.682;23.294;2023-02-12T03:11:26;95526.25;;;2.88;47.60
11971;BME280;6045;42.682;23.294;2023-02-12T03:13:58;95516.41;;;2.90;48.03
11971;BME280;6045;42.682;23.294;2023-02-12T03:16:30;95520.38;;;2.94;47.82
11971;BME280;6045;42.682;23.294;2023-02-12T03:19:02;95518.41;;;3.04;48.02
11971;BME280;6045;42.682;23.294;2023-02-12T03:21:35;95510.50;;;3.12;47.79
11971;BME280;6045;42.682;23.294;2023-02-12T03:24:09;95509.16;;;3.16;47.74
11971;BME280;6045;42.682;23.294;2023-02-12T03:26:41;95511.50;;;3.19;47.92
11971;BME280;6045;42.682;23.294;2023-02-12T03:29:09;95506.38;;;3.17;47.72
11971;BME280;6045;42.682;23.294;2023-02-12T03:31:47;95500.94;;;3.19;47.83
11971;BME280;6045;42.682;23.294;2023-02-12T03:34:25;95492.69;;;3.22;48.03
11971;BME280;6045;42.682;23.294;2023-02-12T03:36:59;95499.63;;;3.31;47.56
11971;BME280;6045;42.682;23.294;2023-02-12T03:39:31;95497.47;;;3.34;47.06
11971;BME280;6045;42.682;23.294;2023-02-12T03:42:04;95493.69;;;3.37;47.52
11971;BME280;6045;42.682;23.294;2023-02-12T03:44:46;95496.00;;;3.40;47.53
11971;BME280;6045;42.682;23.294;2023-02-12T03:47:22;95496.00;;;3.32;47.77
11971;BME280;6045;42.682;23.294;2023-02-12T03:49:57;95497.97;;;3.22;48.90
11971;BME280;6045;42.682;23.294;2023-02-12T03:52:25;95498.81;;;3.22;48.86
11971;BME280;6045;42.682;23.294;2023-02-12T03:54:52;95504.75;;;3.24;48.17
11971;BME280;6045;42.682;23.294;2023-02-12T03:57:20;95499.63;;;3.15;48.29
11971;BME280;6045;42.682;23.294;2023-02-12T03:59:49;95501.41;;;3.14;48.44
11971;BME280;6045;42.682;23.294;2023-02-12T04:02:18;95502.41;;;3.13;48.70
11971;BME280;6045;42.682;23.294;2023-02-12T04:04:46;95499.94;;;3.12;49.04
11971;BME280;6045;42.682;23.294;2023-02-12T04:07:14;95493.31;;;3.16;49.03
11971;BME280;6045;42.682;23.294;2023-02-12T04:09:42;95498.94;;;3.21;49.10
11971;BME280;6045;42.682;23.294;2023-02-12T04:12:21;95491.38;;;3.26;48.81
11971;BME280;6045;42.682;23.294;2023-02-12T04:15:06;95494.84;;;3.26;48.71
11971;BME280;6045;42.682;23.294;2023-02-12T04:17:44;95501.25;;;3.08;49.24
11971;BME280;6045;42.682;23.294;2023-02-12T04:20:22;95507.81;;;2.96;49.54
11971;BME280;6045;42.682;23.294;2023-02-12T04:23:01;95520.06;;;3.05;49.19
11971;BME280;6045;42.682;23.294;2023-02-12T04:25:42;95510.50;;;3.12;49.20
11971;BME280;6045;42.682;23.294;2023-02-12T04:28:24;95510.81;;;3.09;49.68
11971;BME280;6045;42.682;23.294;2023-02-12T04:30:58;95516.09;;;3.09;49.58
11971;BME280;6045;42.682;23.294;2023-02-12T04:33:30;95514.13;;;3.11;49.76
11971;BME280;6045;42.682;23.294;2023-02-12T04:36:02;95508.19;;;3.17;49.59
11971;BME280;6045;42.682;23.294;2023-02-12T04:38:36;95521.41;;;3.17;49.65
11971;BME280;6045;42.682;23.294;2023-02-12T04:41:06;95508.22;;;3.25;49.47
11971;BME280;6045;42.682;23.294;2023-02-12T04:43:36;95511.66;;;3.17;49.87
11971;BME280;6045;42.682;23.294;2023-02-12T04:46:04;95516.59;;;3.20;49.88
11971;BME280;6045;42.682;23.294;2023-02-12T04:48:31;95522.22;;;3.25;49.80
11971;BME280;6045;42.682;23.294;2023-02-12T04:51:00;95528.38;;;3.34;49.25
11971;BME280;6045;42.682;23.294;2023-02-12T04:53:27;95527.00;;;3.30;49.38
11971;BME280;6045;42.682;23.294;2023-02-12T04:55:54;95535.94;;;3.29;49.43
11971;BME280;6045;42.682;23.294;2023-02-12T04:58:21;95537.25;;;3.33;49.25
11971;BME280;6045;42.682;23.294;2023-02-12T05:00:47;95543.03;;;3.28;49.79
11971;BME280;6045;42.682;23.294;2023-02-12T05:03:14;95542.72;;;3.31;49.25
11971;BME280;6045;42.682;23.294;2023-02-12T05:05:41;95537.72;;;3.12;49.56
11971;BME280;6045;42.682;23.294;2023-02-12T05:08:09;95546.13;;;3.08;50.17
11971;BME280;6045;42.682;23.294;2023-02-12T05:10:36;95546.13;;;3.08;49.45
11971;BME280;6045;42.682;23.294;2023-02-12T05:13:02;95546.91;;;2.84;50.27
11971;BME280;6045;42.682;23.294;2023-02-12T05:15:29;95559.56;;;2.81;50.97
11971;BME280;6045;42.682;23.294;2023-02-12T05:17:56;95555.31;;;2.88;51.10
11971;BME280;6045;42.682;23.294;2023-02-12T05:20:22;95549.84;;;2.81;50.40
11971;BME280;6045;42.682;23.294;2023-02-12T05:22:51;95556.25;;;2.78;51.41
11971;BME280;6045;42.682;23.294;2023-02-12T05:25:20;95556.38;;;2.61;51.09
11971;BME280;6045;42.682;23.294;2023-02-12T05:27:46;95558.47;;;2.49;51.80
11971;BME280;6045;42.682;23.294;2023-02-12T05:30:13;95567.53;;;2.47;51.90
11971;BME280;6045;42.682;23.294;2023-02-12T05:32:40;95567.94;;;2.34;57.88
11971;BME280;6045;42.682;23.294;2023-02-12T05:35:07;95567.75;;;2.36;53.23
11971;BME280;6045;42.682;23.294;2023-02-12T05:37:34;95569.53;;;2.27;53.67
11971;BME280;6045;42.682;23.294;2023-02-12T05:40:01;95567.78;;;2.10;54.62
11971;BME280;6045;42.682;23.294;2023-02-12T05:42:30;95579.34;;;1.91;55.99
11971;BME280;6045;42.682;23.294;2023-02-12T05:44:56;95584.03;;;1.80;57.05
11971;BME280;6045;42.682;23.294;2023-02-12T05:47:23;95587.50;;;1.63;58.66
11971;BME280;6045;42.682;23.294;2023-02-12T05:49:50;95596.78;;;1.67;58.76
11971;BME280;6045;42.682;23.294;2023-02-12T05:52:17;95586.09;;;1.51;60.33
11971;BME280;6045;42.682;23.294;2023-02-12T05:54:44;95592.03;;;1.53;61.02
11971;BME280;6045;42.682;23.294;2023-02-12T05:57:11;95587.50;;;1.63;61.03
11971;BME280;6045;42.682;23.294;2023-02-12T05:59:39;95591.72;;;1.73;60.02
11971;BME280;6045;42.682;23.294;2023-02-12T06:02:05;95592.47;;;1.83;59.79
11971;BME280;6045;42.682;23.294;2023-02-12T06:04:32;95594.28;;;1.83;60.30
11971;BME280;6045;42.682;23.294;2023-02-12T06:06:59;95600.00;;;1.61;61.42
11971;BME280;6045;42.682;23.294;2023-02-12T06:09:26;95604.75;;;1.57;61.74
11971;BME280;6045;42.682;23.294;2023-02-12T06:11:52;95596.41;;;1.62;62.18
11971;BME280;6045;42.682;23.294;2023-02-12T06:14:20;95604.91;;;1.56;62.80
11971;BME280;6045;42.682;23.294;2023-02-12T06:16:49;95602.19;;;1.48;63.92
11971;BME280;6045;42.682;23.294;2023-02-12T06:19:17;95609.19;;;1.39;65.71
11971;BME280;6045;42.682;23.294;2023-02-12T06:21:44;95602.94;;;1.40;66.02
11971;BME280;6045;42.682;23.294;2023-02-12T06:24:11;95610.63;;;1.51;66.22
11971;BME280;6045;42.682;23.294;2023-02-12T06:26:38;95616.13;;;1.58;66.44
11971;BME280;6045;42.682;23.294;2023-02-12T06:29:05;95606.41;;;1.58;67.04
11971;BME280;6045;42.682;23.294;2023-02-12T06:31:33;95615.31;;;1.57;68.62
11971;BME280;6045;42.682;23.294;2023-02-12T06:34:03;95612.88;;;1.46;70.81
11971;BME280;6045;42.682;23.294;2023-02-12T06:36:30;95599.34;;;1.41;71.88
11971;BME280;6045;42.682;23.294;2023-02-12T06:38:59;95610.56;;;1.43;71.69
11971;BME280;6045;42.682;23.294;2023-02-12T06:41:26;95618.13;;;1.46;72.09
11971;BME280;6045;42.682;23.294;2023-02-12T06:43:53;95615.16;;;1.41;72.06
11971;BME280;6045;42.682;23.294;2023-02-12T06:46:19;95619.25;;;1.26;72.82
11971;BME280;6045;42.682;23.294;2023-02-12T06:48:46;95611.69;;;1.41;72.92
11971;BME280;6045;42.682;23.294;2023-02-12T06:51:16;95610.69;;;1.42;73.08
11971;BME280;6045;42.682;23.294;2023-02-12T06:53:46;95615.38;;;1.48;73.06
11971;BME280;6045;42.682;23.294;2023-02-12T06:56:13;95614.03;;;1.44;73.20
11971;BME280;6045;42.682;23.294;2023-02-12T06:58:41;95618.59;;;1.42;73.22
11971;BME280;6045;42.682;23.294;2023-02-12T07:01:09;95610.69;;;1.42;73.73
11971;BME280;6045;42.682;23.294;2023-02-12T07:03:38;95621.22;;;1.42;72.98
11971;BME280;6045;42.682;23.294;2023-02-12T07:06:06;95612.88;;;1.46;72.65
11971;BME280;6045;42.682;23.294;2023-02-12T07:08:34;95616.25;;;1.56;72.23
11971;BME280;6045;42.682;23.294;2023-02-12T07:11:01;95615.53;;;1.64;71.41
11971;BME280;6045;42.682;23.294;2023-02-12T07:13:28;95614.22;;;1.68;71.85
11971;BME280;6045;42.682;23.294;2023-02-12T07:15:55;95620.50;;;1.67;71.63
11971;BME280;6045;42.682;23.294;2023-02-12T07:18:21;95611.72;;;1.84;71.05
11971;BME280;6045;42.682;23.294;2023-02-12T07:20:48;95613.94;;;1.88;70.09
11971;BME280;6045;42.682;23.294;2023-02-12T07:23:15;95611.44;;;1.87;70.50
11971;BME280;6045;42.682;23.294;2023-02-12T07:25:43;95616.31;;;1.99;70.23
11971;BME280;6045;42.682;23.294;2023-02-12T07:28:09;95616.69;;;2.04;70.07
11971;BME280;6045;42.682;23.294;2023-02-12T07:30:36;95615.59;;;2.15;69.89
11971;BME280;6045;42.682;23.294;2023-02-12T07:33:03;95614.38;;;2.27;69.64
11971;BME280;6045;42.682;23.294;2023-02-12T07:35:30;95618.34;;;2.31;69.13
11971;BME280;6045;42.682;23.294;2023-02-12T07:37:57;95619.81;;;2.51;68.73
11971;BME280;6045;42.682;23.294;2023-02-12T07:40:24;95623.50;;;2.66;68.23
11971;BME280;6045;42.682;23.294;2023-02-12T07:42:54;95620.56;;;2.69;67.94
11971;BME280;6045;42.682;23.294;2023-02-12T07:45:22;95634.03;;;3.42;81.21
11971;BME280;6045;42.682;23.294;2023-02-12T07:47:49;95638.44;;;4.07;86.50
11971;BME280;6045;42.682;23.294;2023-02-12T07:50:16;95639.75;;;3.87;71.29
11971;BME280;6045;42.682;23.294;2023-02-12T07:52:43;95641.22;;;3.82;67.33
11971;BME280;6045;42.682;23.294;2023-02-12T07:55:09;95629.78;;;3.65;67.99
11971;BME280;6045;42.682;23.294;2023-02-12T07:57:36;95639.06;;;3.69;69.06
11971;BME280;6045;42.682;23.294;2023-02-12T08:00:05;95641.56;;;3.79;67.96
11971;BME280;6045;42.682;23.294;2023-02-12T08:02:32;95647.50;;;3.81;66.64
11971;BME280;6045;42.682;23.294;2023-02-12T08:04:59;95651.66;;;3.83;65.76
11971;BME280;6045;42.682;23.294;2023-02-12T08:07:26;95647.47;;;3.57;65.59
11971;BME280;6045;42.682;23.294;2023-02-12T08:09:53;95642.34;;;3.63;65.48
11971;BME280;6045;42.682;23.294;2023-02-12T08:12:20;95645.66;;;3.57;65.38
11971;BME280;6045;42.682;23.294;2023-02-12T08:14:48;95634.06;;;3.50;65.76
11971;BME280;6045;42.682;23.294;2023-02-12T08:17:16;95633.69;;;3.29;66.42
11971;BME280;6045;42.682;23.294;2023-02-12T08:19:42;95640.13;;;3.26;67.01
11971;BME280;6045;42.682;23.294;2023-02-12T08:22:09;95637.00;;;3.31;66.84
11971;BME280;6045;42.682;23.294;2023-02-12T08:24:36;95639.81;;;3.29;67.31
11971;BME280;6045;42.682;23.294;2023-02-12T08:27:04;95643.47;;;3.36;67.04
11971;BME280;6045;42.682;23.294;2023-02-12T08:29:30;95646.72;;;3.30;66.72
11971;BME280;6045;42.682;23.294;2023-02-12T08:31:59;95651.69;;;3.33;66.93
11971;BME280;6045;42.682;23.294;2023-02-12T08:34:28;95657.09;;;3.24;66.97
11971;BME280;6045;42.682;23.294;2023-02-12T08:36:56;95662.31;;;3.08;67.38
11971;BME280;6045;42.682;23.294;2023-02-12T08:39:25;95664.72;;;2.93;68.52
11971;BME280;6045;42.682;23.294;2023-02-12T08:41:53;95670.03;;;2.67;69.37
11971;BME280;6045;42.682;23.294;2023-02-12T08:44:20;95669.41;;;2.48;70.04
11971;BME280;6045;42.682;23.294;2023-02-12T08:46:48;95677.78;;;2.43;70.77
11971;BME280;6045;42.682;23.294;2023-02-12T08:49:17;95679.81;;;2.75;79.26
11971;BME280;6045;42.682;23.294;2023-02-12T08:51:47;95673.66;;;3.42;80.62
11971;BME280;6045;42.682;23.294;2023-02-12T08:54:16;95678.66;;;3.11;71.09
11971;BME280;6045;42.682;23.294;2023-02-12T08:56:43;95671.28;;;3.73;86.92
11971;BME280;6045;42.682;23.294;2023-02-12T08:59:11;95686.03;;;3.41;71.83
11971;BME280;6045;42.682;23.294;2023-02-12T09:01:39;95683.44;;;3.08;69.90
11971;BME280;6045;42.682;23.294;2023-02-12T09:04:07;95683.09;;;3.36;83.62
11971;BME280;6045;42.682;23.294;2023-02-12T09:06:37;95693.13;;;3.83;82.33
11971;BME280;6045;42.682;23.294;2023-02-12T09:09:05;95701.06;;;3.33;71.61
11971;BME280;6045;42.682;23.294;2023-02-12T09:11:33;95698.34;;;3.17;70.40
11971;BME280;6045;42.682;23.294;2023-02-12T09:14:01;95697.84;;;2.88;70.98
11971;BME280;6045;42.682;23.294;2023-02-12T09:16:30;95705.53;;;2.73;71.50
11971;BME280;6045;42.682;23.294;2023-02-12T09:18:57;95705.84;;;2.70;71.53
11971;BME280;6045;42.682;23.294;2023-02-12T09:21:24;95707.91;;;2.58;72.15
11971;BME280;6045;42.682;23.294;2023-02-12T09:23:51;95708.03;;;2.57;72.54
11971;BME280;6045;42.682;23.294;2023-02-12T09:26:21;95708.75;;;2.59;73.19
11971;BME280;6045;42.682;23.294;2023-02-12T09:28:48;95707.25;;;2.39;72.73
11971;BME280;6045;42.682;23.294;2023-02-12T09:31:17;95707.41;;;2.37;73.37
11971;BME280;6045;42.682;23.294;2023-02-12T09:33:45;95705.75;;;2.36;73.69
11971;BME280;6045;42.682;23.294;2023-02-12T09:36:14;95704.56;;;2.31;74.05
11971;BME280;6045;42.682;23.294;2023-02-12T09:38:42;95706.38;;;2.30;74.19
11971;BME280;6045;42.682;23.294;2023-02-12T09:41:31;95714.41;;;2.29;74.29
11971;BME280;6045;42.682;23.294;2023-02-12T09:44:04;95719.47;;;2.22;74.36
11971;BME280;6045;42.682;23.294;2023-02-12T09:46:35;95714.75;;;2.08;74.68
11971;BME280;6045;42.682;23.294;2023-02-12T09:49:09;95717.00;;;2.03;74.74
11971;BME280;6045;42.682;23.294;2023-02-12T09:51:43;95722.66;;;2.08;75.16
11971;BME280;6045;42.682;23.294;2023-02-12T09:54:14;95735.44;;;2.03;75.53
11971;BME280;6045;42.682;23.294;2023-02-12T09:56:45;95737.19;;;2.12;75.86
11971;BME280;6045;42.682;23.294;2023-02-12T09:59:19;95733.72;;;2.29;75.20
11971;BME280;6045;42.682;23.294;2023-02-12T10:01:47;95729.78;;;2.33;74.26
11971;BME280;6045;42.682;23.294;2023-02-12T10:04:14;95724.44;;;2.43;74.59
11971;BME280;6045;42.682;23.294;2023-02-12T10:06:46;95724.34;;;2.52;73.92
11971;BME280;6045;42.682;23.294;2023-02-12T10:09:32;95720.44;;;2.56;73.76
11971;BME280;6045;42.682;23.294;2023-02-12T10:12:10;95720.25;;;2.75;73.75
11971;BME280;6045;42.682;23.294;2023-02-12T10:15:15;95716.09;;;2.99;72.84
11971;BME280;6045;42.682;23.294;2023-02-12T10:17:47;95726.38;;;3.10;72.33
11971;BME280;6045;42.682;23.294;2023-02-12T10:23:26;95716.66;;;3.18;71.54
11971;BME280;6045;42.682;23.294;2023-02-12T10:26:01;95719.25;;;3.44;70.49
11971;BME280;6045;42.682;23.294;2023-02-12T10:28:38;95709.16;;;3.89;76.45
11971;BME280;6045;42.682;23.294;2023-02-12T10:31:10;95716.16;;;4.23;70.55
11971;BME280;6045;42.682;23.294;2023-02-12T10:33:41;95716.66;;;4.50;67.43
11971;BME280;6045;42.682;23.294;2023-02-12T10:36:17;95719.31;;;4.58;66.44
11971;BME280;6045;42.682;23.294;2023-02-12T10:38:51;95718.31;;;4.51;66.60
11971;BME280;6045;42.682;23.294;2023-02-12T10:41:21;95720.94;;;4.59;67.83
11971;BME280;6045;42.682;23.294;2023-02-12T10:43:51;95718.66;;;4.40;66.18
11971;BME280;6045;42.682;23.294;2023-02-12T10:46:18;95720.28;;;4.17;66.56
11971;BME280;6045;42.682;23.294;2023-02-12T10:48:47;95718.47;;;4.09;67.29
11971;BME280;6045;42.682;23.294;2023-02-12T10:51:28;95722.41;;;4.05;67.36
11971;BME280;6045;42.682;23.294;2023-02-12T10:54:34;95715.78;;;4.01;68.09
11971;BME280;6045;42.682;23.294;2023-02-12T10:57:09;95714.81;;;4.02;67.61
11971;BME280;6045;42.682;23.294;2023-02-12T10:59:38;95714.19;;;4.17;67.32
11971;BME280;6045;42.682;23.294;2023-02-12T11:02:18;95709.38;;;4.36;67.67
11971;BME280;6045;42.682;23.294;2023-02-12T11:04:45;95719.16;;;4.52;67.28
11971;BME280;6045;42.682;23.294;2023-02-12T11:07:12;95722.91;;;4.73;67.06
11971;BME280;6045;42.682;23.294;2023-02-12T11:09:40;95733.84;;;4.78;65.95
11971;BME280;6045;42.682;23.294;2023-02-12T11:12:19;95719.78;;;4.62;65.69
11971;BME280;6045;42.682;23.294;2023-02-12T11:14:52;95727.75;;;4.38;66.17
11971;BME280;6045;42.682;23.294;2023-02-12T11:17:24;95735.84;;;4.36;66.96
11971;BME280;6045;42.682;23.294;2023-02-12T11:20:07;95721.59;;;4.13;67.32
11971;BME280;6045;42.682;23.294;2023-02-12T11:22:49;95716.50;;;4.28;67.48
11971;BME280;6045;42.682;23.294;2023-02-12T11:25:16;95716.66;;;4.26;66.77
11971;BME280;6045;42.682;23.294;2023-02-12T11:27:43;95713.19;;;4.50;66.91
11971;BME280;6045;42.682;23.294;2023-02-12T11:30:17;95713.69;;;4.61;65.67
11971;BME280;6045;42.682;23.294;2023-02-12T11:32:45;95719.47;;;4.73;66.11
11971;BME280;6045;42.682;23.294;2023-02-12T11:35:15;95717.66;;;4.65;65.59
11971;BME280;6045;42.682;23.294;2023-02-12T11:37:48;95714.50;;;4.78;65.74
11971;BME280;6045;42.682;23.294;2023-02-12T11:40:18;95715.00;;;4.90;65.33
11971;BME280;6045;42.682;23.294;2023-02-12T11:42:48;95706.84;;;4.99;65.71
11971;BME280;6045;42.682;23.294;2023-02-12T11:45:19;95710.72;;;5.35;67.78
11971;BME280;6045;42.682;23.294;2023-02-12T11:47:47;95714.00;;;5.45;64.73
11971;BME280;6045;42.682;23.294;2023-02-12T11:50:23;95711.47;;;5.60;64.01
11971;BME280;6045;42.682;23.294;2023-02-12T11:52:53;95707.28;;;5.66;63.77
11971;BME280;6045;42.682;23.294;2023-02-12T11:55:24;95708.84;;;5.91;63.17
11971;BME280;6045;42.682;23.294;2023-02-12T11:57:53;95711.78;;;5.96;61.10
11971;BME280;6045;42.682;23.294;2023-02-12T12:00:32;95719.94;;;5.94;62.19
11971;BME280;6045;42.682;23.294;2023-02-12T12:03:06;95710.66;;;5.90;61.76
11971;BME280;6045;42.682;23.294;2023-02-12T12:05:41;95713.00;;;5.93;61.61
11971;BME280;6045;42.682;23.294;2023-02-12T12:08:16;95710.16;;;5.95;62.37
11971;BME280;6045;42.682;23.294;2023-02-12T12:10:48;95715.31;;;5.80;61.74
11971;BME280;6045;42.682;23.294;2023-02-12T12:13:20;95721.66;;;5.79;63.52
11971;BME280;6045;42.682;23.294;2023-02-12T12:15:55;95719.81;;;5.88;63.56
11971;BME280;6045;42.682;23.294;2023-02-12T12:18:46;95719.66;;;5.81;61.48
11971;BME280;6045;42.682;23.294;2023-02-12T12:21:36;95718.41;;;5.61;61.24
11971;BME280;6045;42.682;23.294;2023-02-12T12:24:10;95716.34;;;5.40;61.31
11971;BME280;6045;42.682;23.294;2023-02-12T12:26:44;95717.34;;;5.31;62.40
11971;BME280;6045;42.682;23.294;2023-02-12T12:29:16;95727.63;;;5.26;62.73
11971;BME280;6045;42.682;23.294;2023-02-12T12:31:46;95727.38;;;4.97;63.56
11971;BME280;6045;42.682;23.294;2023-02-12T12:34:16;95728.22;;;4.90;64.36
11971;BME280;6045;42.682;23.294;2023-02-12T12:37:08;95728.00;;;5.15;65.15
11971;BME280;6045;42.682;23.294;2023-02-12T12:39:51;95717.88;;;5.27;63.99
11971;BME280;6045;42.682;23.294;2023-02-12T12:42:33;95717.50;;;5.38;64.03
11971;BME280;6045;42.682;23.294;2023-02-12T12:45:28;95733.47;;;5.61;64.29
11971;BME280;6045;42.682;23.294;2023-02-12T12:48:13;95741.41;;;5.69;63.41
11971;BME280;6045;42.682;23.294;2023-02-12T12:50:57;95727.50;;;5.67;62.34
11971;BME280;6045;42.682;23.294;2023-02-12T12:53:45;95733.53;;;5.44;62.22
11971;BME280;6045;42.682;23.294;2023-02-12T12:56:40;95750.47;;;5.35;63.47
11971;BME280;6045;42.682;23.294;2023-02-12T13:05:40;95752.84;;;5.14;63.48
11971;BME280;6045;42.682;23.294;2023-02-12T13:08:23;95752.97;;;5.21;64.25
11971;BME280;6045;42.682;23.294;2023-02-12T13:10:56;95755.81;;;5.19;63.93
11971;BME280;6045;42.682;23.294;2023-02-12T13:13:30;95755.84;;;5.03;63.91
11971;BME280;6045;42.682;23.294;2023-02-12T13:16:05;95761.00;;;4.72;64.54
11971;BME280;6045;42.682;23.294;2023-02-12T13:18:42;95756.06;;;4.61;65.36
11971;BME280;6045;42.682;23.294;2023-02-12T13:21:17;95757.69;;;4.62;65.75
11971;BME280;6045;42.682;23.294;2023-02-12T13:23:52;95759.50;;;4.62;65.77
11971;BME280;6045;42.682;23.294;2023-02-12T13:26:26;95760.50;;;4.69;65.70
11971;BME280;6045;42.682;23.294;2023-02-12T13:28:59;95762.50;;;4.59;65.43
11971;BME280;6045;42.682;23.294;2023-02-12T13:31:32;95759.69;;;4.60;66.08
11971;BME280;6045;42.682;23.294;2023-02-12T13:34:06;95769.13;;;4.63;66.37
11971;BME280;6045;42.682;23.294;2023-02-12T13:36:39;95767.28;;;4.55;66.69
11971;BME280;6045;42.682;23.294;2023-02-12T13:39:13;95762.16;;;4.62;67.11
11971;BME280;6045;42.682;23.294;2023-02-12T13:41:46;95763.50;;;4.66;66.56
11971;BME280;6045;42.682;23.294;2023-02-12T13:44:21;95764.47;;;4.65;66.17